createdAt,value
2019-03-22T00:00:32.986Z,47.38
2019-03-22T00:01:38.461Z,47.31
2019-03-22T00:02:44.117Z,47.36
2019-03-22T00:03:49.685Z,47.36
2019-03-22T00:04:55.217Z,47.42
2019-03-22T00:06:02.458Z,47.36
2019-03-22T00:07:07.855Z,47.33
2019-03-22T00:08:13.346Z,47.21
2019-03-22T00:09:20.593Z,47.26
2019-03-22T00:10:26.021Z,47.21
2019-03-22T00:11:31.586Z,47.33
2019-03-22T00:12:38.533Z,47.38
2019-03-22T00:13:44.147Z,47.31
2019-03-22T00:14:50.170Z,47.28
2019-03-22T00:15:58.338Z,47.19
2019-03-22T00:17:06.353Z,47.18
2019-03-22T00:18:12.779Z,47.05
2019-03-22T00:19:20.437Z,47.12
2019-03-22T00:20:26.858Z,47.16
2019-03-22T00:21:33.057Z,47.32
2019-03-22T00:22:39.158Z,47.57
2019-03-22T00:23:45.872Z,47.83
2019-03-22T00:24:52.746Z,47.77
2019-03-22T00:25:59.049Z,47.72
2019-03-22T00:27:15.933Z,47.98
2019-03-22T00:28:14.178Z,48.07
2019-03-22T00:29:20.339Z,48.07
2019-03-22T00:30:26.280Z,47.81
2019-03-22T00:31:31.748Z,47.93
2019-03-22T00:32:37.270Z,47.92
2019-03-22T00:33:42.762Z,47.88
2019-03-22T00:34:48.289Z,47.86
2019-03-22T00:35:55.386Z,47.84
2019-03-22T00:37:00.838Z,47.76
2019-03-22T00:38:06.400Z,47.77
2019-03-22T00:39:11.979Z,47.84
2019-03-22T00:40:17.533Z,47.80
2019-03-22T00:41:22.957Z,47.75
2019-03-22T00:42:28.729Z,47.75
2019-03-22T00:43:34.269Z,47.80
2019-03-22T00:44:40.578Z,47.75
2019-03-22T00:45:46.740Z,47.74
2019-03-22T00:46:53.949Z,47.70
2019-03-22T00:48:01.663Z,47.75
2019-03-22T00:49:07.908Z,47.77
2019-03-22T00:50:15.078Z,47.80
2019-03-22T00:51:22.069Z,47.77
2019-03-22T00:52:28.499Z,47.88
2019-03-22T00:53:34.669Z,47.73
2019-03-22T00:54:41.518Z,47.81
2019-03-22T00:55:47.655Z,47.79
2019-03-22T00:56:55.239Z,47.83
2019-03-22T00:58:01.798Z,47.94
2019-03-22T00:59:08.179Z,47.83
2019-03-22T01:00:16.120Z,47.80
2019-03-22T01:01:21.890Z,47.81
2019-03-22T01:02:27.465Z,47.78
2019-03-22T01:03:33.051Z,47.71
2019-03-22T01:04:38.636Z,47.71
2019-03-22T01:05:44.140Z,47.90
2019-03-22T01:06:50.219Z,47.96
2019-03-22T01:07:56.628Z,47.94
2019-03-22T01:09:03.020Z,47.83
2019-03-22T01:10:15.619Z,47.93
2019-03-22T01:11:21.591Z,48.01
2019-03-22T01:12:27.549Z,47.91
2019-03-22T01:13:33.928Z,48.01
2019-03-22T01:14:40.883Z,47.89
2019-03-22T01:15:47.490Z,48.05
2019-03-22T01:16:53.725Z,47.93
2019-03-22T01:17:59.876Z,47.99
2019-03-22T01:19:06.524Z,47.98
2019-03-22T01:20:13.758Z,47.91
2019-03-22T01:21:21.752Z,47.90
2019-03-22T01:22:28.546Z,47.93
2019-03-22T01:23:35.115Z,47.89
2019-03-22T01:24:41.577Z,47.90
2019-03-22T01:25:48.513Z,47.93
2019-03-22T01:26:55.404Z,47.89
2019-03-22T01:28:02.406Z,47.83
2019-03-22T01:29:08.346Z,47.86
2019-03-22T01:30:20.933Z,47.88
2019-03-22T01:31:26.879Z,47.84
2019-03-22T01:32:32.667Z,47.78
2019-03-22T01:33:38.157Z,47.76
2019-03-22T01:34:43.871Z,47.84
2019-03-22T01:35:49.496Z,47.94
2019-03-22T01:36:55.294Z,47.74
2019-03-22T01:38:01.602Z,47.89
2019-03-22T01:39:07.927Z,47.87
2019-03-22T01:40:15.406Z,47.76
2019-03-22T01:41:21.346Z,47.80
2019-03-22T01:42:26.924Z,47.71
2019-03-22T01:43:53.567Z,47.78
2019-03-22T01:44:59.205Z,47.75
2019-03-22T01:46:05.467Z,47.75
2019-03-22T01:47:14.018Z,47.80
2019-03-22T01:48:20.314Z,47.75
2019-03-22T01:49:26.778Z,47.78
2019-03-22T01:50:33.367Z,47.78
2019-03-22T01:51:39.872Z,47.74
2019-03-22T01:52:46.159Z,47.65
2019-03-22T01:53:52.170Z,47.67
2019-03-22T01:55:00.667Z,47.65
2019-03-22T01:56:07.209Z,47.71
2019-03-22T01:57:14.068Z,47.54
2019-03-22T01:58:20.923Z,47.65
2019-03-22T01:59:27.720Z,47.60
2019-03-22T02:00:35.651Z,47.54
2019-03-22T02:01:41.243Z,47.50
2019-03-22T02:02:46.838Z,47.57
2019-03-22T02:03:52.901Z,47.56
2019-03-22T02:04:59.720Z,47.53
2019-03-22T02:06:05.581Z,47.53
2019-03-22T02:07:11.390Z,47.55
2019-03-22T02:08:17.442Z,47.51
2019-03-22T02:09:25.851Z,47.60
2019-03-22T02:10:31.418Z,47.52
2019-03-22T02:11:37.219Z,47.55
2019-03-22T02:12:44.641Z,47.44
2019-03-22T02:13:50.531Z,47.43
2019-03-22T02:14:58.095Z,47.48
2019-03-22T02:16:05.273Z,47.41
2019-03-22T02:17:11.762Z,47.53
2019-03-22T02:18:18.321Z,47.53
2019-03-22T02:19:24.883Z,47.38
2019-03-22T02:20:31.667Z,47.45
2019-03-22T02:21:37.897Z,47.52
2019-03-22T02:22:44.666Z,47.59
2019-03-22T02:23:52.239Z,47.54
2019-03-22T02:24:58.684Z,47.46
2019-03-22T02:26:05.987Z,47.48
2019-03-22T02:27:12.474Z,47.45
2019-03-22T02:28:18.867Z,47.53
2019-03-22T02:29:25.474Z,47.53
2019-03-22T02:30:31.747Z,47.52
2019-03-22T02:31:37.280Z,47.41
2019-03-22T02:32:42.785Z,47.41
2019-03-22T02:33:49.040Z,47.47
2019-03-22T02:34:56.470Z,47.47
2019-03-22T02:36:02.260Z,47.43
2019-03-22T02:37:08.160Z,47.53
2019-03-22T02:38:14.391Z,47.50
2019-03-22T02:39:20.034Z,47.43
2019-03-22T02:40:26.140Z,47.49
2019-03-22T02:41:31.979Z,47.45
2019-03-22T02:42:37.590Z,47.40
2019-03-22T02:43:44.751Z,47.47
2019-03-22T02:44:50.245Z,47.41
2019-03-22T02:45:55.809Z,47.49
2019-03-22T02:47:02.180Z,47.46
2019-03-22T02:48:09.768Z,47.44
2019-03-22T02:49:18.070Z,47.49
2019-03-22T02:50:24.277Z,47.43
2019-03-22T02:51:30.218Z,47.38
2019-03-22T02:52:36.247Z,47.44
2019-03-22T02:53:42.670Z,47.38
2019-03-22T02:54:49.699Z,47.38
2019-03-22T02:55:56.931Z,47.32
2019-03-22T02:57:02.791Z,47.36
2019-03-22T02:58:20.370Z,47.29
2019-03-22T02:59:16.904Z,47.23
2019-03-22T03:00:22.757Z,47.29
2019-03-22T03:01:28.329Z,47.27
2019-03-22T03:02:34.099Z,47.30
2019-03-22T03:03:39.640Z,47.22
2019-03-22T03:04:45.366Z,47.25
2019-03-22T03:05:51.441Z,47.29
2019-03-22T03:06:57.030Z,47.22
2019-03-22T03:08:02.621Z,47.19
2019-03-22T03:09:08.500Z,47.18
2019-03-22T03:10:16.005Z,47.25
2019-03-22T03:11:23.432Z,47.15
2019-03-22T03:12:29.428Z,47.15
2019-03-22T03:13:35.141Z,47.13
2019-03-22T03:14:41.052Z,47.09
2019-03-22T03:15:47.260Z,47.14
2019-03-22T03:16:53.430Z,47.06
2019-03-22T03:18:01.032Z,47.05
2019-03-22T03:19:07.060Z,47.04
2019-03-22T03:20:15.919Z,47.05
2019-03-22T03:21:22.271Z,47.01
2019-03-22T03:22:29.328Z,47.04
2019-03-22T03:23:35.849Z,47.00
2019-03-22T03:24:42.440Z,47.00
2019-03-22T03:25:49.313Z,47.09
2019-03-22T03:26:55.951Z,47.07
2019-03-22T03:28:02.760Z,47.00
2019-03-22T03:29:11.050Z,47.03
2019-03-22T03:30:22.323Z,47.03
2019-03-22T03:31:29.691Z,47.01
2019-03-22T03:32:35.549Z,47.02
2019-03-22T03:33:43.260Z,47.03
2019-03-22T03:34:49.313Z,47.01
2019-03-22T03:35:55.549Z,47.09
2019-03-22T03:37:01.548Z,47.08
2019-03-22T03:38:09.260Z,47.15
2019-03-22T03:39:14.739Z,47.09
2019-03-22T03:40:20.298Z,47.05
2019-03-22T03:41:25.819Z,47.10
2019-03-22T03:42:31.277Z,47.06
2019-03-22T03:43:37.436Z,47.14
2019-03-22T03:44:43.389Z,47.01
2019-03-22T03:45:49.279Z,47.04
2019-03-22T03:46:56.042Z,47.10
2019-03-22T03:48:04.544Z,47.14
2019-03-22T03:49:11.190Z,47.08
2019-03-22T03:50:17.797Z,47.03
2019-03-22T03:51:25.570Z,47.08
2019-03-22T03:52:32.321Z,47.03
2019-03-22T03:53:38.839Z,46.97
2019-03-22T03:54:45.093Z,46.95
2019-03-22T03:55:51.900Z,46.99
2019-03-22T03:56:59.271Z,47.03
2019-03-22T03:58:06.025Z,46.96
2019-03-22T03:59:13.919Z,47.01
2019-03-22T04:00:20.640Z,46.95
2019-03-22T04:01:26.890Z,46.98
2019-03-22T04:02:32.393Z,46.91
2019-03-22T04:03:38.149Z,46.94
2019-03-22T04:04:44.039Z,46.95
2019-03-22T04:05:49.556Z,47.00
2019-03-22T04:06:56.882Z,46.97
2019-03-22T04:08:02.641Z,46.98
2019-03-22T04:09:09.142Z,46.95
2019-03-22T04:10:16.546Z,46.88
2019-03-22T04:11:24.526Z,46.95
2019-03-22T04:12:32.560Z,46.91
2019-03-22T04:13:39.046Z,46.85
2019-03-22T04:14:46.577Z,46.83
2019-03-22T04:15:52.612Z,46.94
2019-03-22T04:16:59.197Z,46.87
2019-03-22T04:18:05.671Z,46.80
2019-03-22T04:19:12.482Z,46.78
2019-03-22T04:20:18.511Z,46.80
2019-03-22T04:21:24.654Z,46.77
2019-03-22T04:22:31.401Z,46.75
2019-03-22T04:23:38.107Z,46.77
2019-03-22T04:24:44.431Z,46.82
2019-03-22T04:25:52.318Z,46.78
2019-03-22T04:26:58.720Z,46.80
2019-03-22T04:28:06.401Z,46.71
2019-03-22T04:29:12.351Z,46.72
2019-03-22T04:30:20.071Z,46.74
2019-03-22T04:31:26.408Z,46.66
2019-03-22T04:32:31.932Z,46.66
2019-03-22T04:33:38.110Z,46.61
2019-03-22T04:34:43.777Z,46.64
2019-03-22T04:35:49.939Z,46.59
2019-03-22T04:36:56.380Z,46.60
2019-03-22T04:38:02.283Z,46.62
2019-03-22T04:39:10.243Z,46.57
2019-03-22T04:40:27.834Z,46.57
2019-03-22T04:41:33.311Z,46.54
2019-03-22T04:42:40.710Z,46.59
2019-03-22T04:43:48.561Z,46.55
2019-03-22T04:44:54.470Z,46.57
2019-03-22T04:46:00.324Z,46.57
2019-03-22T04:47:06.138Z,46.55
2019-03-22T04:48:25.777Z,46.53
2019-03-22T04:49:31.700Z,46.47
2019-03-22T04:50:40.121Z,46.49
2019-03-22T04:51:46.895Z,46.43
2019-03-22T04:52:53.790Z,46.40
2019-03-22T04:54:00.311Z,46.42
2019-03-22T04:55:06.508Z,46.45
2019-03-22T04:56:13.880Z,46.45
2019-03-22T04:57:20.281Z,46.38
2019-03-22T04:58:26.591Z,46.39
2019-03-22T05:00:38.591Z,46.37
2019-03-22T05:01:44.633Z,46.27
2019-03-22T05:03:14.980Z,46.28
2019-03-22T05:04:32.058Z,46.37
2019-03-22T05:05:47.631Z,46.29
2019-03-22T05:06:53.839Z,46.31
2019-03-22T05:07:59.481Z,46.28
2019-03-22T05:09:07.969Z,46.33
2019-03-22T05:10:15.006Z,46.27
2019-03-22T05:11:20.972Z,46.28
2019-03-22T05:12:26.669Z,46.19
2019-03-22T05:13:32.772Z,46.14
2019-03-22T05:14:39.571Z,46.17
2019-03-22T05:15:45.478Z,46.20
2019-03-22T05:16:52.842Z,46.18
2019-03-22T05:18:00.991Z,46.18
2019-03-22T05:19:07.602Z,46.20
2019-03-22T05:20:15.230Z,46.14
2019-03-22T05:21:21.719Z,46.19
2019-03-22T05:22:28.433Z,46.17
2019-03-22T05:23:35.471Z,46.19
2019-03-22T05:24:41.951Z,46.16
2019-03-22T05:25:48.262Z,46.20
2019-03-22T05:26:55.772Z,46.27
2019-03-22T05:28:01.871Z,46.14
2019-03-22T05:29:07.910Z,46.18
2019-03-22T05:30:27.594Z,46.23
2019-03-22T05:31:52.263Z,46.20
2019-03-22T05:32:58.088Z,46.13
2019-03-22T05:34:04.019Z,46.09
2019-03-22T05:35:10.058Z,46.13
2019-03-22T05:36:16.001Z,46.02
2019-03-22T05:37:23.742Z,46.00
2019-03-22T05:38:29.742Z,46.04
2019-03-22T05:39:35.482Z,46.07
2019-03-22T05:40:41.043Z,46.12
2019-03-22T05:41:46.552Z,46.11
2019-03-22T05:42:52.602Z,46.19
2019-03-22T05:43:58.632Z,46.13
2019-03-22T05:45:06.114Z,46.14
2019-03-22T05:46:12.184Z,46.11
2019-03-22T05:47:20.239Z,46.11
2019-03-22T05:48:26.800Z,46.06
2019-03-22T05:49:34.936Z,46.10
2019-03-22T05:50:41.291Z,46.10
2019-03-22T05:51:48.401Z,46.10
2019-03-22T05:52:55.073Z,46.07
2019-03-22T05:54:01.393Z,46.10
2019-03-22T05:55:08.479Z,46.09
2019-03-22T05:56:14.649Z,46.15
2019-03-22T05:57:21.247Z,46.08
2019-03-22T05:58:29.316Z,46.04
2019-03-22T05:59:42.365Z,46.00
2019-03-22T06:00:43.457Z,46.00
2019-03-22T06:01:49.086Z,46.00
2019-03-22T06:02:56.147Z,45.96
2019-03-22T06:04:01.695Z,45.98
2019-03-22T06:05:08.496Z,45.97
2019-03-22T06:06:16.083Z,45.96
2019-03-22T06:07:21.757Z,46.01
2019-03-22T06:08:28.576Z,45.98
2019-03-22T06:09:34.370Z,45.95
2019-03-22T06:10:41.306Z,45.96
2019-03-22T06:11:47.355Z,45.91
2019-03-22T06:12:56.652Z,45.89
2019-03-22T06:14:02.147Z,45.90
2019-03-22T06:15:11.029Z,45.84
2019-03-22T06:16:16.789Z,45.79
2019-03-22T06:17:23.133Z,45.79
2019-03-22T06:18:29.140Z,45.72
2019-03-22T06:19:35.677Z,45.70
2019-03-22T06:20:42.724Z,45.64
2019-03-22T06:21:50.051Z,45.67
2019-03-22T06:22:56.427Z,45.63
2019-03-22T06:24:02.701Z,45.67
2019-03-22T06:25:09.445Z,45.61
2019-03-22T06:26:16.279Z,45.65
2019-03-22T06:27:23.045Z,45.65
2019-03-22T06:28:29.069Z,45.64
2019-03-22T06:29:35.398Z,45.62
2019-03-22T06:30:43.537Z,45.56
2019-03-22T06:31:48.997Z,45.53
2019-03-22T06:32:56.987Z,45.44
2019-03-22T06:34:10.598Z,45.41
2019-03-22T06:35:35.595Z,45.32
2019-03-22T06:36:41.728Z,45.29
2019-03-22T06:37:47.518Z,45.28
2019-03-22T06:38:53.836Z,45.28
2019-03-22T06:39:59.824Z,45.25
2019-03-22T06:41:07.837Z,45.21
2019-03-22T06:42:13.836Z,45.15
2019-03-22T06:43:20.851Z,45.11
2019-03-22T06:44:26.743Z,45.08
2019-03-22T06:45:34.589Z,45.05
2019-03-22T06:46:40.917Z,45.04
2019-03-22T06:47:47.285Z,45.10
2019-03-22T06:48:55.758Z,45.06
2019-03-22T06:50:02.197Z,44.82
2019-03-22T06:51:08.858Z,42.71
2019-03-22T06:52:15.226Z,41.89
2019-03-22T06:53:21.373Z,41.61
2019-03-22T06:54:31.820Z,41.69
2019-03-22T06:55:35.485Z,41.77
2019-03-22T07:00:17.063Z,42.20
2019-03-22T07:01:22.659Z,42.33
2019-03-22T07:02:30.181Z,42.42
2019-03-22T07:03:35.838Z,42.45
2019-03-22T07:04:41.818Z,42.50
2019-03-22T07:05:47.658Z,42.55
2019-03-22T07:06:53.746Z,42.59
2019-03-22T07:08:01.218Z,42.61
2019-03-22T07:09:08.779Z,42.68
2019-03-22T07:13:47.520Z,42.75
2019-03-22T07:14:53.781Z,42.87
2019-03-22T07:19:32.939Z,43.00
2019-03-22T07:20:38.899Z,43.11
2019-03-22T07:25:18.820Z,43.22
2019-03-22T07:26:24.622Z,43.28
2019-03-22T07:27:32.819Z,43.40
2019-03-22T07:28:39.140Z,43.41
2019-03-22T07:29:46.387Z,43.40
2019-03-22T07:30:52.535Z,43.43
2019-03-22T07:31:58.263Z,43.50
2019-03-22T07:33:03.920Z,43.51
2019-03-22T07:34:09.859Z,43.49
2019-03-22T07:35:15.699Z,43.53
2019-03-22T07:36:21.539Z,43.54
2019-03-22T07:37:27.188Z,43.55
2019-03-22T07:42:08.106Z,43.29
2019-03-22T07:43:13.640Z,43.29
2019-03-22T07:44:19.140Z,43.26
2019-03-22T07:45:25.380Z,43.30
2019-03-22T07:46:31.748Z,43.38
2019-03-22T07:47:37.899Z,43.55
2019-03-22T07:48:44.400Z,43.79
2019-03-22T07:53:24.000Z,44.13
2019-03-22T07:54:30.028Z,44.45
2019-03-22T07:55:36.487Z,44.85
2019-03-22T07:56:43.099Z,44.96
2019-03-22T07:57:51.070Z,45.07
2019-03-22T07:58:57.864Z,45.38
2019-03-22T08:00:06.301Z,45.46
2019-03-22T08:01:13.321Z,45.29
2019-03-22T08:02:19.148Z,45.39
2019-03-22T08:03:25.121Z,45.30
2019-03-22T08:04:30.941Z,45.25
2019-03-22T08:05:36.803Z,45.24
2019-03-22T08:06:42.620Z,45.27
2019-03-22T08:07:48.380Z,45.30
2019-03-22T08:08:54.280Z,45.44
2019-03-22T08:10:00.297Z,45.63
2019-03-22T08:11:06.121Z,45.74
2019-03-22T08:12:12.049Z,45.84
2019-03-22T08:13:18.082Z,45.94
2019-03-22T08:14:24.041Z,46.17
2019-03-22T08:15:31.905Z,46.23
2019-03-22T08:16:37.959Z,46.33
2019-03-22T08:17:43.967Z,46.48
2019-03-22T08:18:51.261Z,46.45
2019-03-22T08:19:57.968Z,46.49
2019-03-22T08:21:03.862Z,46.53
2019-03-22T08:22:11.163Z,46.54
2019-03-22T08:23:23.216Z,46.57
2019-03-22T08:24:28.962Z,46.61
2019-03-22T08:25:35.179Z,46.65
2019-03-22T08:26:42.312Z,46.76
2019-03-22T08:27:49.343Z,46.63
2019-03-22T08:28:55.733Z,46.64
